Time;durP1;ratioP1;P1;durP2;ratioP2;P2;SDS_P1;SDS_P2;PMS_P1;PMS_P2;Temp;Humidity;BMP_temperature;BMP_pressure;BME280_temperature;BME280_humidity;BME280_pressure;Samples;Min_cycle;Max_cycle;Signal;HPM_P1;HPM_P2
2022/10/19 00:01:28;;;;;;;6.78;2.80;;;;;;;-145.48;100.00;64539.38;6041985;29;20436;-89
2022/10/19 00:05:28;;;;;;;5.15;2.10;;;;;;;-145.48;100.00;64539.38;6040687;29;20056;-89
2022/10/19 00:09:29;;;;;;;13.43;2.28;;;;;;;-145.48;100.00;64539.38;6045965;29;20051;-89
2022/10/19 00:13:29;;;;;;;6.40;2.13;;;;;;;-145.48;100.00;64539.38;6042774;29;20069;-89
2022/10/19 00:17:33;;;;;;;5.20;2.35;;;;;;;-145.48;100.00;64539.38;6031341;29;20115;-89
2022/10/19 00:21:34;;;;;;;9.75;2.58;;;;;;;-145.48;100.00;64539.38;6045828;29;20053;-89
2022/10/19 00:25:35;;;;;;;6.55;2.42;;;;;;;-145.48;100.00;64539.38;6044450;29;20126;-90
2022/10/19 00:29:36;;;;;;;7.70;2.60;;;;;;;-145.48;100.00;64539.38;6043198;29;20047;-90
2022/10/19 00:33:36;;;;;;;6.45;2.13;;;;;;;-145.48;100.00;64539.38;6043533;29;20049;-89
2022/10/19 00:37:37;;;;;;;9.77;2.60;;;;;;;-145.48;100.00;64539.38;6038718;29;20072;-89
2022/10/19 00:41:38;;;;;;;5.28;2.17;;;;;;;-145.48;100.00;64539.38;6051834;29;20412;-89
2022/10/19 00:45:41;;;;;;;6.07;2.05;;;;;;;-145.48;100.00;64539.38;6037211;29;20521;-89
2022/10/19 00:49:43;;;;;;;10.95;2.70;;;;;;;-145.48;100.00;64539.38;6058586;29;20595;-89
2022/10/19 00:53:43;;;;;;;4.57;2.40;;;;;;;-145.48;100.00;64539.38;6040989;29;20057;-90
2022/10/19 00:57:45;;;;;;;6.60;2.53;;;;;;;-145.48;100.00;64539.38;6052295;29;20108;-90
2022/10/19 01:01:46;;;;;;;7.05;2.20;;;;;;;-145.48;100.00;64539.38;6043165;29;20655;-89
2022/10/19 01:05:46;;;;;;;;;;;;;;;-145.48;100.00;64539.38;6043309;29;20428;-89
2022/10/19 01:09:47;;;;;;;9.13;2.40;;;;;;;-145.48;100.00;64539.38;6057210;29;19934;-89
2022/10/19 01:14:24;;;;;;;7.72;2.58;;;;;;;-145.48;100.00;64539.38;6058972;29;20053;-90
2022/10/19 01:19:01;;;;;;;8.43;2.80;;;;;;;-145.48;100.00;64539.38;6054122;29;20053;-89
2022/10/19 01:23:33;;;;;;;7.03;2.47;;;;;;;-145.48;100.00;64539.38;6047975;29;20479;-89
2022/10/19 01:27:49;;;;;;;5.30;2.58;;;;;;;-145.48;100.00;64539.38;6036833;29;20045;-89
2022/10/19 01:32:02;;;;;;;10.80;2.45;;;;;;;-145.48;100.00;64539.38;6047955;29;20492;-90
2022/10/19 01:36:35;;;;;;;8.48;2.35;;;;;;;-145.48;100.00;64539.38;6045854;29;20064;-89
2022/10/19 01:40:54;;;;;;;4.85;2.10;;;;;;;-145.48;100.00;64539.38;6030086;29;20590;-89
2022/10/19 01:45:09;;;;;;;9.98;2.03;;;;;;;-145.48;100.00;64539.38;6041583;29;20057;-89
2022/10/19 01:49:28;;;;;;;5.47;2.45;;;;;;;-145.48;100.00;64539.38;6050973;29;20048;-90
2022/10/19 01:53:34;;;;;;;4.18;1.85;;;;;;;-145.48;100.00;64539.38;6049250;29;20056;-89
2022/10/19 01:58:01;;;;;;;4.68;1.60;;;;;;;-145.48;100.00;64539.38;6047564;29;20126;-89
2022/10/19 02:02:05;;;;;;;4.70;1.88;;;;;;;-145.48;100.00;64539.38;6046673;29;20052;-89
2022/10/19 02:06:07;;;;;;;8.02;2.20;;;;;;;-145.48;100.00;64539.38;6054366;29;20057;-90
2022/10/19 02:10:08;;;;;;;3.88;1.80;;;;;;;-145.48;100.00;64539.38;6042011;29;20049;-90
2022/10/19 02:14:12;;;;;;;8.32;1.85;;;;;;;-145.48;100.00;64539.38;6037245;29;20347;-89
2022/10/19 02:18:17;;;;;;;5.18;1.73;;;;;;;-145.48;100.00;64539.38;6046482;29;20033;-89
2022/10/19 02:22:18;;;;;;;4.82;1.98;;;;;;;-145.48;100.00;64539.38;6032630;29;20062;-89
2022/10/19 02:26:19;;;;;;;4.25;1.50;;;;;;;-145.48;100.00;64539.38;6041333;29;20046;-89
2022/10/19 02:30:21;;;;;;;5.07;1.55;;;;;;;-145.48;100.00;64539.38;6041652;29;20045;-90
2022/10/19 02:34:21;;;;;;;5.25;1.77;;;;;;;-145.48;100.00;64539.38;6042184;29;20053;-90
2022/10/19 02:38:22;;;;;;;5.03;1.40;;;;;;;-145.48;100.00;64539.38;6042527;29;20045;-90
2022/10/19 02:42:39;;;;;;;6.70;2.05;;;;;;;-145.48;100.00;64539.38;6038629;29;20417;-90
2022/10/19 02:46:44;;;;;;;5.32;1.75;;;;;;;-145.48;100.00;64539.38;6058878;29;20079;-90
2022/10/19 02:50:48;;;;;;;6.18;1.55;;;;;;;-145.48;100.00;64539.38;6053193;29;20044;-90
2022/10/19 02:54:48;;;;;;;5.78;1.88;;;;;;;-145.48;100.00;64539.38;6046246;29;20375;-90
2022/10/19 02:58:49;;;;;;;4.60;1.87;;;;;;;-145.48;100.00;64539.38;6030140;29;20041;-90
2022/10/19 03:02:49;;;;;;;5.40;1.63;;;;;;;-145.48;100.00;64539.38;6028012;29;20290;-89
2022/10/19 03:06:49;;;;;;;4.97;1.85;;;;;;;-145.48;100.00;64539.38;6040277;29;20129;-90
2022/10/19 03:10:50;;;;;;;4.75;2.00;;;;;;;-145.48;100.00;64539.38;6038496;29;20051;-90
2022/10/19 03:14:50;;;;;;;5.07;1.52;;;;;;;-145.48;100.00;64539.38;6054104;29;20217;-90
2022/10/19 03:18:50;;;;;;;7.40;1.63;;;;;;;-145.48;100.00;64539.38;6055815;29;20435;-89
2022/10/19 03:22:51;;;;;;;2.55;1.63;;;;;;;-145.48;100.00;64539.38;6044773;29;20329;-89
2022/10/19 03:26:52;;;;;;;6.70;2.03;;;;;;;-145.48;100.00;64539.38;6045063;29;20104;-89
2022/10/19 03:30:52;;;;;;;5.57;1.80;;;;;;;-145.48;100.00;64539.38;6043971;29;20038;-90
2022/10/19 03:34:53;;;;;;;6.25;2.10;;;;;;;-145.48;100.00;64539.38;6047282;29;20504;-90
2022/10/19 03:38:55;;;;;;;2.58;1.48;;;;;;;-145.48;100.00;64539.38;6046486;29;20061;-89
2022/10/19 03:42:55;;;;;;;5.05;2.35;;;;;;;-145.48;100.00;64539.38;6045172;29;20056;-90
2022/10/19 03:46:56;;;;;;;4.15;1.92;;;;;;;-145.48;100.00;64539.38;6031544;29;20040;-90
2022/10/19 03:51:04;;;;;;;5.03;2.10;;;;;;;-145.48;100.00;64539.38;6043680;29;20052;-89
2022/10/19 03:55:05;;;;;;;6.03;2.20;;;;;;;-145.48;100.00;64539.38;6046687;29;20053;-90
2022/10/19 03:59:06;;;;;;;6.00;2.03;;;;;;;-145.48;100.00;64539.38;6046133;29;20056;-90
2022/10/19 04:03:06;;;;;;;2.13;1.77;;;;;;;-145.48;100.00;64539.38;6033994;29;20056;-90
2022/10/19 04:07:16;;;;;;;5.10;2.50;;;;;;;-145.48;100.00;64539.38;6040864;29;20099;-90
2022/10/19 04:11:19;;;;;;;4.75;2.45;;;;;;;-145.48;100.00;64539.38;6022636;29;20155;-90
2022/10/19 04:15:20;;;;;;;5.38;2.60;;;;;;;-145.48;100.00;64539.38;6043025;29;20067;-90
2022/10/19 04:19:21;;;;;;;6.13;2.08;;;;;;;-145.48;100.00;64539.38;6036653;29;20060;-90
2022/10/19 04:23:21;;;;;;;7.32;2.00;;;;;;;-145.48;100.00;64539.38;6042463;29;20469;-90
2022/10/19 04:27:21;;;;;;;5.35;1.90;;;;;;;-145.48;100.00;64539.38;6041129;29;20045;-90
2022/10/19 04:31:22;;;;;;;3.73;2.20;;;;;;;-145.48;100.00;64539.38;6043543;29;20097;-89
2022/10/19 04:35:22;;;;;;;7.03;3.13;;;;;;;-145.48;100.00;64539.38;6040217;29;20318;-90
2022/10/19 04:39:22;;;;;;;5.32;2.13;;;;;;;-145.48;100.00;64539.38;6042226;29;20041;-90
2022/10/19 04:43:23;;;;;;;6.35;2.42;;;;;;;-145.48;100.00;64539.38;6041089;29;20436;-90
2022/10/19 04:47:24;;;;;;;9.07;2.70;;;;;;;-145.48;100.00;64539.38;6043285;29;20214;-90
2022/10/19 04:51:25;;;;;;;5.40;2.35;;;;;;;-145.48;100.00;64539.38;6042782;29;20488;-90
2022/10/19 04:55:26;;;;;;;4.35;2.30;;;;;;;-145.48;100.00;64539.38;6038960;29;20045;-90
2022/10/19 04:59:27;;;;;;;4.70;2.70;;;;;;;-145.48;100.00;64539.38;6038434;29;20055;-90
2022/10/19 05:03:27;;;;;;;6.57;2.60;;;;;;;-145.48;100.00;64539.38;6046440;29;20412;-90
2022/10/19 05:07:29;;;;;;;3.17;2.20;;;;;;;-145.48;100.00;64539.38;6043531;29;20053;-90
2022/10/19 05:11:29;;;;;;;6.85;2.67;;;;;;;-145.48;100.00;64539.38;6036564;29;20559;-89
2022/10/19 05:15:30;;;;;;;;;;;;;;;-145.48;100.00;64539.38;6049825;29;20073;-90
2022/10/19 05:19:31;;;;;;;5.78;2.55;;;;;;;-145.48;100.00;64539.38;6040105;29;19939;-90
2022/10/19 05:23:31;;;;;;;8.43;2.75;;;;;;;-145.48;100.00;64539.38;6047137;29;20084;-90
2022/10/19 05:27:37;;;;;;;5.20;2.10;;;;;;;-145.48;100.00;64539.38;6042675;29;20053;-90
2022/10/19 05:31:37;;;;;;;6.60;2.75;;;;;;;-145.48;100.00;64539.38;6040449;29;20045;-90
2022/10/19 05:35:38;;;;;;;7.18;2.83;;;;;;;-145.48;100.00;64539.38;6038724;29;20056;-90
2022/10/19 05:39:38;;;;;;;5.67;2.70;;;;;;;-145.48;100.00;64539.38;6062726;29;20503;-90
2022/10/19 05:43:39;;;;;;;8.07;2.90;;;;;;;-145.48;100.00;64539.38;6041008;29;20339;-90
2022/10/19 05:47:39;;;;;;;;;;;;;;;-145.48;100.00;64539.38;6049121;29;21407;-89
2022/10/19 05:51:49;;;;;;;6.05;2.45;;;;;;;-145.48;100.00;64539.38;6044188;29;19938;-90
2022/10/19 05:55:50;;;;;;;9.55;3.30;;;;;;;-145.48;100.00;64539.38;6037953;29;20679;-90
2022/10/19 05:59:50;;;;;;;10.83;3.03;;;;;;;-145.48;100.00;64539.38;6044492;29;20061;-90
2022/10/19 06:03:51;;;;;;;7.15;2.90;;;;;;;-145.48;100.00;64539.38;6048873;29;20040;-89
2022/10/19 06:07:52;;;;;;;;;;;;;;;-145.48;100.00;64539.38;6046786;29;20052;-90
2022/10/19 06:12:02;;;;;;;8.20;3.25;;;;;;;-145.48;100.00;64539.38;6046268;29;19928;-90
2022/10/19 06:16:03;;;;;;;5.60;2.92;;;;;;;-145.48;100.00;64539.38;6043356;29;20057;-90
2022/10/19 06:20:04;;;;;;;9.70;2.92;;;;;;;-145.48;100.00;64539.38;6033403;29;20358;-90
2022/10/19 06:24:05;;;;;;;7.30;2.50;;;;;;;-145.48;100.00;64539.38;6039450;29;20049;-90
2022/10/19 06:28:06;;;;;;;6.45;3.03;;;;;;;-145.48;100.00;64539.38;6043867;29;20044;-90
2022/10/19 06:32:06;;;;;;;8.68;2.65;;;;;;;-145.48;100.00;64539.38;6034033;29;20056;-90
2022/10/19 06:36:09;;;;;;;6.90;2.85;;;;;;;-145.48;100.00;64539.38;6057271;29;20270;-89
2022/10/19 06:40:09;;;;;;;6.53;2.58;;;;;;;-145.48;100.00;64539.38;6042514;29;20139;-90
2022/10/19 06:44:11;;;;;;;7.30;2.78;;;;;;;-145.48;100.00;64539.38;6045394;29;20064;-90
2022/10/19 06:48:11;;;;;;;7.45;2.80;;;;;;;-145.48;100.00;64539.38;6044610;29;20520;-90
2022/10/19 06:52:11;;;;;;;7.63;2.60;;;;;;;-145.48;100.00;64539.38;6044984;29;20056;-90
2022/10/19 06:56:12;;;;;;;4.50;2.72;;;;;;;-145.48;100.00;64539.38;6042759;29;20053;-90
2022/10/19 07:00:13;;;;;;;4.63;2.40;;;;;;;-145.48;100.00;64539.38;6051539;29;20570;-90
2022/10/19 07:04:13;;;;;;;5.70;2.53;;;;;;;-145.48;100.00;64539.38;6034932;29;20504;-90
2022/10/19 07:08:14;;;;;;;6.30;2.63;;;;;;;-145.48;100.00;64539.38;6032838;29;20362;-90
2022/10/19 07:12:16;;;;;;;11.13;2.70;;;;;;;-145.48;100.00;64539.38;6038060;29;20055;-90
2022/10/19 07:16:17;;;;;;;10.30;3.33;;;;;;;-145.48;100.00;64539.38;6039192;29;20192;-90
2022/10/19 07:20:23;;;;;;;5.43;2.40;;;;;;;-145.48;100.00;64539.38;6034302;29;20468;-89
2022/10/19 07:24:24;;;;;;;5.70;2.30;;;;;;;-145.48;100.00;64539.38;6057158;29;20049;-90
2022/10/19 07:28:25;;;;;;;4.25;2.53;;;;;;;-145.48;100.00;64539.38;6036037;29;20642;-90
2022/10/19 07:32:28;;;;;;;6.07;2.35;;;;;;;-145.48;100.00;64539.38;6043107;29;20044;-90
2022/10/19 07:36:29;;;;;;;5.40;2.17;;;;;;;-145.48;100.00;64539.38;6046133;29;20539;-90
2022/10/19 07:40:32;;;;;;;5.93;2.03;;;;;;;-145.48;100.00;64539.38;6036144;29;20181;-89
2022/10/19 07:44:33;;;;;;;4.93;1.90;;;;;;;-145.48;100.00;64539.38;6045010;29;20045;-90
2022/10/19 07:48:34;;;;;;;3.67;2.25;;;;;;;-145.48;100.00;64539.38;6044106;29;20049;-90
2022/10/19 07:52:35;;;;;;;4.40;1.77;;;;;;;-145.48;100.00;64539.38;6024777;29;20432;-90
2022/10/19 07:56:36;;;;;;;7.80;1.85;;;;;;;-145.48;100.00;64539.38;6045861;29;20049;-89
2022/10/19 08:00:36;;;;;;;6.95;1.95;;;;;;;-145.48;100.00;64539.38;6040923;29;20048;-89
2022/10/19 08:04:38;;;;;;;4.57;1.20;;;;;;;-145.48;100.00;64539.38;6040987;29;20048;-90
2022/10/19 08:08:58;;;;;;;6.18;1.73;;;;;;;-145.48;100.00;64539.38;6043862;29;20527;-90
2022/10/19 08:12:59;;;;;;;6.03;1.40;;;;;;;-145.48;100.00;64539.38;6031965;29;20041;-89
2022/10/19 08:17:00;;;;;;;8.52;1.80;;;;;;;-145.48;100.00;64539.38;6051535;29;20053;-89
2022/10/19 08:21:01;;;;;;;;;;;;;;;-145.48;100.00;64539.38;6037085;29;21325;-90
2022/10/19 08:25:02;;;;;;;3.43;1.37;;;;;;;-145.48;100.00;64539.38;6058249;29;19928;-90
2022/10/19 08:29:04;;;;;;;3.60;0.90;;;;;;;-145.48;100.00;64539.38;6038559;29;20808;-89
2022/10/19 08:33:07;;;;;;;4.68;1.23;;;;;;;-145.48;100.00;64539.38;6036772;29;20045;-89
2022/10/19 08:37:08;;;;;;;2.45;0.88;;;;;;;-145.48;100.00;64539.38;6034536;29;20159;-89
2022/10/19 08:41:47;;;;;;;5.35;1.38;;;;;;;-145.48;100.00;64539.38;6034227;29;20308;-91
2022/10/19 08:46:08;;;;;;;6.13;1.58;;;;;;;-145.48;100.00;64539.38;6029951;29;20128;-90
2022/10/19 08:50:39;;;;;;;5.63;1.23;;;;;;;-145.48;100.00;64539.38;6031423;29;20144;-87
2022/10/19 08:54:54;;;;;;;5.85;1.23;;;;;;;-145.48;100.00;64539.38;6025791;29;20077;-88
2022/10/19 08:59:00;;;;;;;5.63;1.25;;;;;;;-145.48;100.00;64539.38;6038872;29;20474;-88
2022/10/19 09:03:32;;;;;;;4.38;1.10;;;;;;;-145.48;100.00;64539.38;6033570;29;20548;-88
2022/10/19 09:08:12;;;;;;;4.70;1.20;;;;;;;-145.48;100.00;64539.38;6039658;29;20976;-88
2022/10/19 09:12:30;;;;;;;2.78;1.02;;;;;;;-145.48;100.00;64539.38;6039843;29;20037;-88
2022/10/19 09:16:41;;;;;;;3.63;1.00;;;;;;;-145.48;100.00;64539.38;6036281;29;20516;-88
2022/10/19 09:20:45;;;;;;;3.30;1.35;;;;;;;-145.48;100.00;64539.38;6043633;29;20060;-88
2022/10/19 09:25:12;;;;;;;4.88;0.82;;;;;;;-145.48;100.00;64539.38;6057712;29;20041;-88
2022/10/19 09:29:45;;;;;;;4.63;1.00;;;;;;;-145.48;100.00;64539.38;6042670;29;20240;-90
2022/10/19 09:33:56;;;;;;;3.65;1.08;;;;;;;-145.48;100.00;64539.38;6039397;29;20037;-89
2022/10/19 09:37:56;;;;;;;;;;;;;;;-145.48;100.00;64539.38;6050246;29;20048;-89
2022/10/19 09:42:16;;;;;;;7.32;1.25;;;;;;;-145.48;100.00;64539.38;6049200;29;20026;-88
2022/10/19 09:46:40;;;;;;;6.38;0.90;;;;;;;-145.48;100.00;64539.38;6047960;29;20072;-89
2022/10/19 09:50:50;;;;;;;3.55;0.80;;;;;;;-145.48;100.00;64539.38;6047836;29;20037;-88
2022/10/19 09:54:59;;;;;;;3.28;1.08;;;;;;;-145.48;100.00;64539.38;6045423;29;20053;-89
2022/10/19 09:59:21;;;;;;;3.13;1.10;;;;;;;-145.48;100.00;64539.38;6046666;29;20049;-89
2022/10/19 10:03:38;;;;;;;3.15;1.00;;;;;;;-145.48;100.00;64539.38;6045334;29;20045;-89
2022/10/19 10:07:40;;;;;;;2.13;0.95;;;;;;;-145.48;100.00;64539.38;6025862;29;20197;-88
2022/10/19 10:11:46;;;;;;;4.00;1.10;;;;;;;-145.48;100.00;64539.38;6039396;29;20125;-89
2022/10/19 10:15:50;;;;;;;1.30;1.10;;;;;;;-145.48;100.00;64539.38;6054252;29;20461;-89
2022/10/19 10:19:58;;;;;;;4.13;1.30;;;;;;;-145.48;100.00;64539.38;6048664;29;20041;-89
2022/10/19 10:24:16;;;;;;;3.92;1.55;;;;;;;-145.48;100.00;64539.38;6047182;29;20049;-89
2022/10/19 10:28:27;;;;;;;4.70;1.35;;;;;;;-145.48;100.00;64539.38;6047036;29;20070;-89
2022/10/19 10:32:28;;;;;;;3.53;1.20;;;;;;;-145.48;100.00;64539.38;6047982;29;20057;-89
2022/10/19 10:36:30;;;;;;;2.88;1.00;;;;;;;-145.48;100.00;64539.38;6046876;29;20059;-89
2022/10/19 10:40:38;;;;;;;4.38;1.10;;;;;;;-145.48;100.00;64539.38;6045531;29;20051;-89
2022/10/19 10:44:58;;;;;;;4.45;1.50;;;;;;;-145.48;100.00;64539.38;6054973;29;20045;-89
2022/10/19 10:52:02;;;;;;;4.32;1.05;;;;;;;14.55;82.31;101908.69;6409099;27;20209;-89
2022/10/19 10:55:12;;;;;;;4.00;0.82;;;;;;;14.63;81.37;101910.72;6360975;27;171295;-89
2022/10/19 10:58:20;;;;;;;2.47;1.00;;;;;;;14.70;81.38;101917.13;6359019;27;20035;-88
2022/10/19 11:01:38;;;;;;;2.03;0.90;;;;;;;14.73;79.52;101919.53;6357743;27;20043;-89
2022/10/19 11:04:47;;;;;;;1.20;1.10;;;;;;;14.80;78.55;101905.06;6355879;28;20043;-89
2022/10/19 11:08:11;;;;;;;2.45;1.00;;;;;;;14.79;79.45;101893.00;6359359;28;20089;-89
2022/10/19 11:11:23;;;;;;;10.07;1.42;;;;;;;14.83;80.50;101897.06;6358208;28;20054;-89
2022/10/19 11:15:01;;;;;;;4.03;1.10;;;;;;;14.98;79.26;101886.38;6350745;28;20140;-89
2022/10/19 11:18:21;;;;;;;2.92;1.17;;;;;;;15.09;78.13;101883.81;6352169;28;20073;-89
2022/10/19 11:21:48;;;;;;;4.53;1.00;;;;;;;15.21;78.14;101877.66;6351704;28;20501;-89
2022/10/19 11:25:26;;;;;;;2.40;0.93;;;;;;;15.33;76.69;101875.03;6358265;28;20207;-89
2022/10/19 11:29:05;;;;;;;2.20;0.90;;;;;;;15.31;78.08;101874.34;6358463;27;20046;-89
2022/10/19 11:32:32;;;;;;;3.30;1.27;;;;;;;15.36;78.92;101861.78;6351553;27;20092;-89
2022/10/19 11:35:59;;;;;;;5.60;1.15;;;;;;;15.34;76.69;101861.06;6347898;27;20079;-89
2022/10/19 11:39:20;;;;;;;1.70;1.17;;;;;;;15.33;78.26;101862.84;6357646;27;20046;-89
2022/10/19 11:42:22;;;;;;;3.03;1.05;;;;;;;15.29;77.79;101861.41;6357595;28;20047;-89
2022/10/19 11:46:02;;;;;;;5.22;1.27;;;;;;;15.26;77.71;101849.44;6357927;27;20043;-89
2022/10/19 11:49:23;;;;;;;3.60;1.20;;;;;;;15.16;78.05;101850.28;6360163;27;20390;-89
2022/10/19 11:52:35;;;;;;;4.40;1.23;;;;;;;15.12;78.01;101847.06;6358478;28;20055;-89
2022/10/19 11:55:59;;;;;;;7.40;1.45;;;;;;;15.11;77.92;101840.19;6357898;27;20497;-89
2022/10/19 11:59:04;;;;;;;3.60;1.50;;;;;;;15.17;78.93;101837.09;6350761;27;20039;-89
2022/10/19 12:02:34;;;;;;;2.90;1.25;;;;;;;15.35;78.98;101841.81;6341563;27;20062;-89
2022/10/19 12:05:46;;;;;;;7.65;1.50;;;;;;;15.44;78.10;101839.31;6331985;28;20040;-89
2022/10/19 12:09:21;;;;;;;2.08;1.50;;;;;;;15.45;76.92;101842.75;6340849;28;20047;-89
2022/10/19 12:12:34;;;;;;;2.80;1.13;;;;;;;15.40;76.55;101830.09;6332181;28;20046;-89
2022/10/19 12:15:45;;;;;;;3.72;1.50;;;;;;;15.43;77.20;101827.25;6339945;28;20515;-89
2022/10/19 12:18:57;;;;;;;2.38;1.35;;;;;;;15.54;76.87;101828.19;6334807;28;20594;-89
2022/10/19 12:22:02;;;;;;;2.97;1.45;;;;;;;15.68;76.82;101838.34;6339840;28;20518;-89
2022/10/19 12:25:05;;;;;;;2.38;1.42;;;;;;;15.68;74.97;101831.34;6338749;28;20185;-89
2022/10/19 12:28:11;;;;;;;2.35;1.60;;;;;;;15.57;75.16;101828.75;6340288;28;20512;-89
2022/10/19 12:31:14;;;;;;;1.58;1.23;;;;;;;15.15;76.48;101815.50;6328751;28;20540;-89
2022/10/19 12:34:31;;;;;;;2.88;1.30;;;;;;;14.82;78.60;101824.16;6337457;28;20757;-90
2022/10/19 12:37:59;;;;;;;3.65;1.50;;;;;;;14.69;79.33;101818.22;6338392;28;20121;-88
2022/10/19 12:41:44;;;;;;;3.33;1.30;;;;;;;14.70;81.42;101818.09;6338959;28;20036;-89
2022/10/19 12:45:19;;;;;;;3.38;1.23;;;;;;;14.73;79.49;101804.84;6337439;28;20511;-88
2022/10/19 12:48:23;;;;;;;5.13;1.50;;;;;;;14.97;79.40;101798.69;6353735;27;20040;-88
2022/10/19 12:51:28;;;;;;;2.80;1.38;;;;;;;15.17;77.78;101805.78;6337268;28;20410;-88
2022/10/19 12:54:39;;;;;;;2.05;1.52;;;;;;;15.02;77.94;101800.00;6339368;28;20043;-89
2022/10/19 12:57:56;;;;;;;3.10;1.45;;;;;;;14.79;81.62;101793.94;6330675;28;20042;-88
2022/10/19 13:01:02;;;;;;;2.05;1.30;;;;;;;14.66;81.18;101790.63;6336486;28;20408;-88
2022/10/19 13:04:23;;;;;;;4.70;1.80;;;;;;;14.68;80.83;101788.72;6336185;28;20217;-88
2022/10/19 13:07:27;;;;;;;4.03;1.40;;;;;;;14.51;80.79;101778.69;6338069;28;20615;-88
2022/10/19 13:10:31;;;;;;;2.40;1.58;;;;;;;14.18;83.00;101781.09;6338823;28;20039;-88
2022/10/19 13:14:05;;;;;;;3.67;1.45;;;;;;;13.80;84.67;101776.13;6336857;28;20043;-88
2022/10/19 13:17:30;;;;;;;5.50;1.67;;;;;;;13.53;88.19;101771.13;6338968;28;20548;-88
2022/10/19 13:20:37;;;;;;;3.30;1.60;;;;;;;13.43;85.37;101763.16;6334881;28;20044;-88
2022/10/19 13:23:47;;;;;;;3.80;1.48;;;;;;;13.69;88.34;101757.84;6338208;28;20463;-88
2022/10/19 13:27:04;;;;;;;4.10;1.55;;;;;;;13.81;84.90;101754.34;6338218;28;20043;-89
2022/10/19 13:30:41;;;;;;;3.17;1.50;;;;;;;13.86;82.37;101749.63;6337690;28;20135;-88
2022/10/19 13:33:45;;;;;;;3.75;1.60;;;;;;;13.93;84.22;101744.81;6335390;28;20066;-88
2022/10/19 13:37:02;;;;;;;2.97;1.73;;;;;;;13.93;83.05;101734.41;6334320;28;20043;-88
2022/10/19 13:40:17;;;;;;;2.30;1.67;;;;;;;13.94;83.96;101733.47;6332913;28;20041;-88
2022/10/19 13:43:28;;;;;;;4.93;1.67;;;;;;;13.94;84.01;101733.47;6335278;28;20088;-88
2022/10/19 13:46:30;;;;;;;5.80;1.70;;;;;;;13.80;83.69;101737.09;6334791;28;20145;-88
2022/10/19 13:49:31;;;;;;;4.22;1.80;;;;;;;13.54;85.04;101741.59;6336920;28;20516;-88
2022/10/19 13:52:53;;;;;;;6.15;1.60;;;;;;;13.35;85.46;101735.09;6335991;28;20063;-88
2022/10/19 13:56:07;;;;;;;4.93;1.70;;;;;;;13.23;86.14;101735.94;6335787;28;20046;-88
2022/10/19 13:59:38;;;;;;;6.05;1.60;;;;;;;13.12;86.21;101744.50;6337300;28;20067;-88
2022/10/19 14:02:44;;;;;;;4.53;1.85;;;;;;;12.93;87.12;101746.72;6337105;28;20036;-88
2022/10/19 14:06:05;;;;;;;4.90;1.88;;;;;;;12.76;89.28;101749.66;6335970;28;20409;-88
2022/10/19 14:09:40;;;;;;;5.60;1.95;;;;;;;12.55;93.09;101739.78;6337896;28;20047;-88
2022/10/19 14:12:43;;;;;;;3.28;1.48;;;;;;;12.42;94.08;101736.34;6251618;28;20049;-88
2022/10/19 14:15:54;;;;;;;7.45;2.10;;;;;;;12.36;97.44;101739.34;6250364;28;20530;-88
2022/10/19 14:18:58;;;;;;;5.00;1.77;;;;;;;12.30;98.43;101732.81;6252653;28;20049;-88
2022/10/19 14:22:16;;;;;;;5.07;2.00;;;;;;;12.19;98.53;101728.31;6256171;28;20565;-88
2022/10/19 14:25:21;;;;;;;3.38;1.67;;;;;;;12.13;100.00;101718.38;6248305;28;20167;-88
2022/10/19 14:28:24;;;;;;;2.30;1.80;;;;;;;12.07;98.91;101722.19;6251160;28;21468;-88
2022/10/19 14:31:35;;;;;;;7.10;2.60;;;;;;;12.04;99.93;101727.56;6256580;28;20050;-88
2022/10/19 14:34:42;;;;;;;5.82;2.03;;;;;;;12.02;100.00;101719.09;6253530;28;20064;-88
2022/10/19 14:37:44;;;;;;;6.32;1.80;;;;;;;12.01;100.00;101722.59;6250059;28;20570;-88
2022/10/19 14:40:46;;;;;;;7.07;2.00;;;;;;;12.01;100.00;101717.41;6252261;28;20041;-88
2022/10/19 14:43:48;;;;;;;4.68;1.90;;;;;;;12.03;100.00;101714.72;6256975;28;20076;-88
2022/10/19 14:46:53;;;;;;;4.30;1.83;;;;;;;12.04;100.00;101714.59;6255469;28;20049;-88
2022/10/19 14:49:55;;;;;;;6.97;2.10;;;;;;;12.01;100.00;101712.22;6323149;28;20231;-88
2022/10/19 14:53:19;;;;;;;4.95;1.80;;;;;;;11.93;100.00;101713.66;6336169;28;20039;-88
2022/10/19 14:56:50;;;;;;;8.13;2.20;;;;;;;11.75;100.00;101708.72;6335650;28;20039;-88
2022/10/19 14:59:58;;;;;;;3.47;2.15;;;;;;;11.61;100.00;101712.19;6335315;28;20493;-87
2022/10/19 15:03:05;;;;;;;4.90;2.50;;;;;;;11.48;100.00;101713.91;6334348;28;20195;-88
2022/10/19 15:06:34;;;;;;;6.47;3.47;;;;;;;11.36;100.00;101704.31;6323344;28;20489;-88
2022/10/19 15:09:48;;;;;;;5.43;2.42;;;;;;;11.24;100.00;101703.31;6316260;28;20059;-88
2022/10/19 15:12:55;;;;;;;5.78;2.30;;;;;;;11.14;100.00;101697.06;6333581;28;20495;-88
2022/10/19 15:16:00;;;;;;;4.80;2.92;;;;;;;11.04;100.00;101693.38;6334593;28;20117;-88
2022/10/19 15:19:04;;;;;;;8.88;3.38;;;;;;;10.92;100.00;101690.59;6332265;28;20450;-88
2022/10/19 15:22:25;;;;;;;4.45;3.03;;;;;;;10.85;100.00;101691.06;6334175;28;20079;-88
2022/10/19 15:25:34;;;;;;;7.10;3.30;;;;;;;10.78;100.00;101685.44;6330113;28;20546;-88
2022/10/19 15:28:46;;;;;;;6.35;3.58;;;;;;;10.68;100.00;101695.53;6331242;28;20106;-88
2022/10/19 15:31:49;;;;;;;7.00;3.67;;;;;;;10.61;100.00;101686.47;6331577;28;20043;-88
2022/10/19 15:34:51;;;;;;;6.90;3.72;;;;;;;10.53;100.00;101684.34;6334497;28;20115;-88
2022/10/19 15:38:03;;;;;;;6.50;3.78;;;;;;;10.47;100.00;101678.72;6335998;28;20409;-88
2022/10/19 15:41:19;;;;;;;10.43;4.15;;;;;;;10.43;100.00;101666.88;6336796;28;20482;-88
2022/10/19 15:44:38;;;;;;;4.95;3.67;;;;;;;10.35;100.00;101665.56;6338085;28;20044;-88
2022/10/19 15:48:13;;;;;;;7.35;4.00;;;;;;;10.22;100.00;101664.59;6338712;28;20063;-88
2022/10/19 15:51:26;;;;;;;8.68;4.10;;;;;;;10.10;100.00;101660.97;6348756;27;20039;-88
2022/10/19 15:54:28;;;;;;;6.25;3.53;;;;;;;9.98;100.00;101661.69;6333551;28;20078;-88
2022/10/19 15:57:42;;;;;;;6.15;3.53;;;;;;;9.87;100.00;101661.50;6334988;28;20818;-87
2022/10/19 16:00:50;;;;;;;5.60;3.58;;;;;;;9.76;100.00;101656.91;6334574;28;20032;-88
2022/10/19 16:03:52;;;;;;;4.85;3.67;;;;;;;9.68;100.00;101652.19;6335265;28;20044;-87
2022/10/19 16:06:54;;;;;;;6.65;3.70;;;;;;;9.58;100.00;101647.66;6336039;28;20077;-87
2022/10/19 16:09:57;;;;;;;8.93;4.22;;;;;;;9.49;100.00;101649.00;6333810;28;20043;-88
2022/10/19 16:12:59;;;;;;;6.05;3.72;;;;;;;9.38;100.00;101648.75;6333059;28;20138;-88
2022/10/19 16:16:06;;;;;;;5.68;4.03;;;;;;;9.22;100.00;101652.19;6336237;28;20485;-88
2022/10/19 16:19:12;;;;;;;10.50;3.72;;;;;;;9.14;100.00;101648.38;6334635;28;20123;-88
2022/10/19 16:22:16;;;;;;;5.78;3.42;;;;;;;9.03;100.00;101651.53;6336512;28;20500;-88
2022/10/19 16:25:18;;;;;;;4.25;3.33;;;;;;;8.97;100.00;101654.47;6337723;28;20526;-88
2022/10/19 16:28:20;;;;;;;6.57;3.72;;;;;;;8.88;100.00;101650.63;6333501;28;20039;-88
2022/10/19 16:31:23;;;;;;;4.85;3.72;;;;;;;8.80;100.00;101648.44;6333831;28;20035;-88
2022/10/19 16:34:29;;;;;;;6.63;3.47;;;;;;;8.72;100.00;101645.44;6332311;28;20693;-88
2022/10/19 16:37:33;;;;;;;6.03;2.90;;;;;;;8.67;100.00;101637.13;6334451;28;20156;-88
2022/10/19 16:40:36;;;;;;;5.70;3.80;;;;;;;8.62;100.00;101633.91;6333451;28;20074;-88
2022/10/19 16:43:38;;;;;;;7.30;3.17;;;;;;;8.58;100.00;101637.59;6335911;28;20054;-89
2022/10/19 16:46:42;;;;;;;7.75;3.70;;;;;;;8.54;100.00;101636.09;6334713;28;20058;-89
2022/10/19 16:49:44;;;;;;;7.38;3.45;;;;;;;8.46;100.00;101639.06;6336675;28;20505;-88
2022/10/19 16:52:46;;;;;;;6.25;3.38;;;;;;;8.41;100.00;101635.91;6336607;28;20055;-88
2022/10/19 16:55:47;;;;;;;7.90;3.20;;;;;;;8.36;100.00;101643.84;6336677;28;20039;-88
2022/10/19 16:58:53;;;;;;;6.35;3.13;;;;;;;8.36;100.00;101637.84;6335831;28;20040;-88
2022/10/19 17:01:55;;;;;;;8.88;3.60;;;;;;;8.33;100.00;101638.00;6334870;28;20036;-87
2022/10/19 17:04:57;;;;;;;6.95;3.05;;;;;;;8.30;100.00;101641.59;6335650;28;20062;-88
2022/10/19 17:07:58;;;;;;;6.32;2.88;;;;;;;8.26;100.00;101650.38;6333495;28;20325;-88